Marfa, TX

5:50 AM CDT on April 24, 2018 (GMT -0500)
Marfa Municipal

Weather History for KMRF - March, 2013

Change the Weather History Date:

Sunday, March 17, 2013

  Actual Average Record
Temperature  
Mean Temperature 60 °F -  
Max Temperature 77 °F 66 °F 84 °F (2017)
Min Temperature 42 °F 34 °F 17 °F (2005)
Degree Days  
Heating Degree Days 6    
Growing Degree Days 10 (Base 50)    
Moisture  
Dew Point 12 °F    
Average Humidity 15    
Maximum Humidity 24    
Minimum Humidity 11    
Precipitation  
Precipitation 0.00 in - - ()
Sea Level Pressure  
Sea Level Pressure 29.93 in    
Wind  
Wind Speed 11 mph (West)    
Max Wind Speed 28 mph    
Max Gust Speed 36 mph    
Visibility 10 miles    
Events      
Averages and records for this station are not official NWS values.
T = Trace of Precipitation, MM = Missing Value Source: NWS Daily Summary

Daily Weather History Graph

Daily Weather History Graph

Search for Another Location

Airport or City:

Astronomy

Mar. 17, 2013 Rise Set
Actual Time 8:03 AM CDT 8:05 PM CDT
Civil Twilight 7:39 AM CDT 8:29 PM CDT
Nautical Twilight 7:11 AM CDT 8:57 PM CDT
Astronomical Twilight 6:43 AM CDT 9:25 PM CDT
Moon 11:40 AM CDT (3/17) 12:53 AM CDT (3/17)
Length of Visible Light 12h 50m
Length of Day
12h 02m
Waxing Crescent, 31% of the Moon is Illuminated
Mar 17
Waxing Crescent
Mar 19
First Quarter
Mar 27
Full
Apr 2
Last Quarter
Apr 10
New

Hourly Weather History & Observations

Time (CDT) Temp. Windchill Dew Point Humidity Pressure Visibility Wind Dir Wind Speed Gust Speed Precip Events Conditions
12:15 AM 46.4 °F 44.3 °F 3.2 °F 17% 29.93 in 10.0 mi NW 4.6 mph - N/A   Clear
12:35 AM 46.4 °F 42.4 °F 3.2 °F 17% 29.93 in 10.0 mi NNW 8.1 mph - N/A   Clear
12:55 AM 42.8 °F 38.0 °F 1.4 °F 18% 29.93 in 10.0 mi NNW 8.1 mph - N/A   Clear
1:15 AM 42.8 °F 37.5 °F 1.4 °F 18% 29.93 in 10.0 mi NNW 9.2 mph - N/A   Clear
1:35 AM 46.4 °F 42.9 °F 5.0 °F 18% 29.93 in 10.0 mi NW 6.9 mph - N/A   Clear
1:55 AM 42.8 °F 41.1 °F 3.2 °F 19% 29.93 in 10.0 mi North 3.5 mph - N/A   Clear
2:15 AM 42.8 °F 39.3 °F 3.2 °F 19% 29.93 in 10.0 mi East 5.8 mph - N/A   Clear
2:35 AM 46.4 °F 45.2 °F 6.8 °F 20% 29.92 in 10.0 mi NW 3.5 mph - N/A   Clear
2:55 AM 51.8 °F - 6.8 °F 16% 29.92 in 10.0 mi WNW 5.8 mph - N/A   Clear
3:15 AM 59.0 °F - 10.4 °F 15% 29.92 in 10.0 mi NW 8.1 mph - N/A   Clear
3:35 AM 55.4 °F - 6.8 °F 14% 29.92 in 10.0 mi West 13.8 mph - N/A   Clear
3:55 AM 55.4 °F - 8.6 °F 15% 29.92 in 10.0 mi WNW 9.2 mph - N/A   Clear
4:15 AM 53.6 °F - 8.6 °F 16% 29.92 in 10.0 mi WNW 11.5 mph - N/A   Clear
4:35 AM 55.4 °F - 10.4 °F 17% 29.92 in 10.0 mi WNW 12.7 mph - N/A   Clear
4:55 AM 55.4 °F - 10.4 °F 17% 29.92 in 10.0 mi WNW 12.7 mph - N/A   Clear
5:15 AM 57.2 °F - 10.4 °F 16% 29.92 in 10.0 mi WNW 11.5 mph - N/A   Clear
5:35 AM 57.2 °F - 12.2 °F 17% 29.92 in 10.0 mi WNW 16.1 mph 20.7 mph N/A   Clear
5:55 AM 57.2 °F - 10.4 °F 16% 29.92 in 10.0 mi WNW 12.7 mph - N/A   Clear
6:15 AM 55.4 °F - 10.4 °F 17% 29.93 in 10.0 mi NW 10.4 mph - N/A   Clear
6:35 AM 53.6 °F - 10.4 °F 18% 29.93 in 10.0 mi WNW 10.4 mph - N/A   Clear
6:55 AM 51.8 °F - 10.4 °F 19% 29.94 in 10.0 mi NW 8.1 mph - N/A   Clear
7:15 AM 51.8 °F - 10.4 °F 19% 29.95 in 10.0 mi NW 9.2 mph - N/A   Clear
7:35 AM 42.8 °F 38.6 °F 6.8 °F 23% 29.96 in 10.0 mi NE 6.9 mph - N/A   Clear
7:55 AM 46.4 °F - 10.4 °F 23% 29.96 in 10.0 mi Calm Calm - N/A   Clear
8:15 AM 48.2 °F - 10.4 °F 22% 29.96 in 10.0 mi WNW 3.5 mph - N/A   Clear
8:35 AM 48.2 °F - 10.4 °F 22% 29.97 in 10.0 mi WNW 4.6 mph - N/A   Clear
8:55 AM 48.2 °F - 12.2 °F 24% 29.98 in 10.0 mi Calm Calm - N/A   Clear
9:15 AM 53.6 °F - 14.0 °F 21% 29.98 in 10.0 mi West 5.8 mph - N/A   Clear
9:35 AM 57.2 °F - 15.8 °F 20% 29.99 in 10.0 mi SSW 4.6 mph - N/A   Clear
9:55 AM 62.6 °F - 15.8 °F 16% 30.00 in 10.0 mi WSW 6.9 mph - N/A   Clear
10:15 AM 64.4 °F - 15.8 °F 15% 30.00 in 10.0 mi WSW 9.2 mph - N/A   Clear
10:35 AM 66.2 °F - 15.8 °F 14% 30.00 in 10.0 mi WSW 13.8 mph 18.4 mph N/A   Clear
10:55 AM 66.2 °F - 15.8 °F 14% 30.00 in 10.0 mi WSW 11.5 mph - N/A   Clear
11:15 AM 69.8 °F - 15.8 °F 13% 30.00 in 10.0 mi West 21.9 mph - N/A   Clear
11:35 AM 69.8 °F - 17.6 °F 14% 29.99 in 10.0 mi West 20.7 mph 25.3 mph N/A   Clear
11:55 AM 71.6 °F - 17.6 °F 13% 29.99 in 10.0 mi West 23.0 mph 28.8 mph N/A   Clear
12:15 PM 71.6 °F - 17.6 °F 13% 29.99 in 10.0 mi WSW 16.1 mph 27.6 mph N/A   Clear
12:35 PM 71.6 °F - 17.6 °F 13% 29.98 in 10.0 mi WSW 20.7 mph 28.8 mph N/A   Clear
12:55 PM 71.6 °F - 17.6 °F 13% 29.98 in 10.0 mi WSW 18.4 mph 31.1 mph N/A   Clear
1:15 PM 73.4 °F - 17.6 °F 12% 29.97 in 10.0 mi WSW 23.0 mph 27.6 mph N/A   Clear
1:35 PM 73.4 °F - 17.6 °F 12% 29.96 in 10.0 mi WSW 26.5 mph 29.9 mph N/A   Clear
1:55 PM 73.4 °F - 17.6 °F 12% 29.95 in 10.0 mi West 24.2 mph 28.8 mph N/A   Clear
2:15 PM 75.2 °F - 15.8 °F 11% 29.95 in 10.0 mi West 26.5 mph 29.9 mph N/A   Clear
2:35 PM 75.2 °F - 17.6 °F 11% 29.93 in 10.0 mi West 23.0 mph 32.2 mph N/A   Clear
2:55 PM 75.2 °F - 17.6 °F 11% 29.92 in 10.0 mi WSW 21.9 mph 33.4 mph N/A   Clear
3:15 PM 75.2 °F - 17.6 °F 11% 29.91 in 10.0 mi West 21.9 mph 32.2 mph N/A   Clear
3:35 PM 75.2 °F - 17.6 °F 11% 29.89 in 10.0 mi West 23.0 mph 33.4 mph N/A   Clear
3:55 PM 75.2 °F - 17.6 °F 11% 29.88 in 10.0 mi WSW 25.3 mph 31.1 mph N/A   Clear
4:15 PM 75.2 °F - 17.6 °F 11% 29.88 in 10.0 mi WSW 23.0 mph 27.6 mph N/A   Clear
4:35 PM 77.0 °F - 17.6 °F 11% 29.87 in 10.0 mi WSW 20.7 mph 29.9 mph N/A   Clear
4:55 PM 75.2 °F - 17.6 °F 11% 29.86 in 10.0 mi West 27.6 mph 35.7 mph N/A   Clear
5:15 PM 75.2 °F - 17.6 °F 11% 29.86 in 10.0 mi WSW 26.5 mph 33.4 mph N/A   Clear
5:35 PM 75.2 °F - 17.6 °F 11% 29.86 in 10.0 mi West 23.0 mph 34.5 mph N/A   Clear
5:55 PM 75.2 °F - 17.6 °F 11% 29.86 in 10.0 mi West 21.9 mph 27.6 mph N/A   Clear
6:15 PM 75.2 °F - 15.8 °F 11% 29.86 in 10.0 mi WSW 24.2 mph 33.4 mph N/A   Clear
6:35 PM 75.2 °F - 15.8 °F 11% 29.87 in 10.0 mi West 24.2 mph 32.2 mph N/A   Clear
6:55 PM 73.4 °F - 15.8 °F 11% 29.88 in 10.0 mi West 23.0 mph 29.9 mph N/A   Clear
7:15 PM 73.4 °F - 15.8 °F 11% 29.89 in 10.0 mi WNW 19.6 mph 26.5 mph N/A   Clear
7:35 PM 71.6 °F - 14.0 °F 11% 29.89 in 10.0 mi West 18.4 mph 28.8 mph N/A   Clear
7:55 PM 69.8 °F - 12.2 °F 11% 29.89 in 10.0 mi West 17.3 mph 24.2 mph N/A   Clear
8:15 PM 66.2 °F - 10.4 °F 11% 29.89 in 10.0 mi West 13.8 mph - N/A   Clear
8:35 PM 66.2 °F - 10.4 °F 11% 29.90 in 10.0 mi West 11.5 mph - N/A   Clear
8:55 PM 64.4 °F - 8.6 °F 11% 29.91 in 10.0 mi West 10.4 mph - N/A   Clear
9:15 PM 60.8 °F - 6.8 °F 12% 29.91 in 10.0 mi WSW 10.4 mph - N/A   Partly Cloudy
9:35 PM 60.8 °F - 8.6 °F 13% 29.92 in 10.0 mi WSW 10.4 mph - N/A   Clear
9:55 PM 59.0 °F - 8.6 °F 14% 29.93 in 10.0 mi West 6.9 mph - N/A   Clear
10:15 PM 55.4 °F - 6.8 °F 14% 29.93 in 10.0 mi West 8.1 mph - N/A   Clear
10:35 PM 53.6 °F - 6.8 °F 15% 29.94 in 10.0 mi Calm Calm - N/A   Clear
10:55 PM 53.6 °F - 8.6 °F 16% 29.95 in 10.0 mi Calm Calm - N/A   Clear
11:15 PM 53.6 °F - 8.6 °F 16% 29.95 in 10.0 mi West 8.1 mph - N/A   Clear
11:35 PM 53.6 °F - 8.6 °F 16% 29.95 in 10.0 mi West 9.2 mph - N/A   Clear
11:55 PM 53.6 °F - 8.6 °F 16% 29.96 in 10.0 mi West 11.5 mph - N/A   Clear